Taos, New Mexico
Current Conditions -  °F | °C
As of 3:15 AM on Thursday 23 Oct 2014 (Local Time) from KSKX Reporting Station
Clear Clear  
Wind Chill: -2°   Ceiling: Unl
Heat Index:   Visibility: 10mi
Dew Point: -3°   Wind: 7mph
Humidity: 75%   Direction: 10°N
Pressure: 30.3"   Gusts: NA
Location:  36.41°N, 105.57°W
Report Text: KSKX 230915Z AUTO 01006KT 10SM CLR 01/M03 A3030 RMK AO1
Loading
Personal Weather Stations






























Interactive Weather Map
Tropical Storm Tracking
New forecast layout! Learn more

10-Day Weather Forecast

Advertisements
Track Severe Weather on mobile